Time;durP1;ratioP1;P1;durP2;ratioP2;P2;SDS_P1;SDS_P2;PMS_P1;PMS_P2;Temp;Humidity;BMP_temperature;BMP_pressure;BME280_temperature;BME280_humidity;BME280_pressure;Samples;Min_cycle;Max_cycle;Signal;HPM_P1;HPM_P2
2023/08/16 00:00:15;;;;;;;;;;;24.80;99.90;;;;;;5134099;28;19956;-72
2023/08/16 00:02:40;;;;;;;;;;;24.70;99.90;;;;;;5134246;28;20330;-72
2023/08/16 00:05:06;;;;;;;;;;;24.60;99.90;;;;;;5134099;27;19956;-72
2023/08/16 00:07:34;;;;;;;;;;;24.50;99.90;;;;;;5134209;27;19918;-71
2023/08/16 00:10:01;;;;;;;;;;;24.40;99.90;;;;;;5133935;27;19903;-71
2023/08/16 00:12:26;;;;;;;;;;;24.40;99.90;;;;;;5136743;27;19910;-71
2023/08/16 00:14:52;;;;;;;;;;;24.40;99.90;;;;;;5138274;27;19903;-71
2023/08/16 00:17:18;;;;;;;;;;;24.40;99.90;;;;;;5138010;27;19990;-70
2023/08/16 00:19:44;;;;;;;;;;;24.40;99.90;;;;;;5136711;27;20364;-71
2023/08/16 00:22:10;;;;;;;;;;;24.30;99.90;;;;;;5138562;27;19903;-71
2023/08/16 00:24:36;;;;;;;;;;;24.30;99.90;;;;;;5138220;27;20297;-72
2023/08/16 00:27:03;;;;;;;;;;;24.30;99.90;;;;;;5137963;27;20054;-71
2023/08/16 00:29:28;;;;;;;;;;;24.30;99.90;;;;;;5138638;27;19904;-71
2023/08/16 00:31:56;;;;;;;;;;;24.30;99.90;;;;;;5138190;27;20040;-72
2023/08/16 00:34:22;;;;;;;;;;;24.20;99.90;;;;;;5137702;27;19934;-71
2023/08/16 00:36:48;;;;;;;;;;;24.20;99.90;;;;;;5138327;27;19977;-71
2023/08/16 00:39:14;;;;;;;;;;;24.20;99.90;;;;;;5137584;27;19963;-72
2023/08/16 00:41:40;;;;;;;;;;;24.20;99.90;;;;;;5137734;27;19904;-71
2023/08/16 00:44:06;;;;;;;;;;;24.10;99.90;;;;;;5137628;27;20279;-73
2023/08/16 00:46:32;;;;;;;;;;;24.00;99.90;;;;;;5136196;27;20014;-71
2023/08/16 00:48:58;;;;;;;;;;;24.00;99.90;;;;;;5136158;27;20371;-71
2023/08/16 00:51:24;;;;;;;;;;;24.00;99.90;;;;;;5138022;27;19903;-71
2023/08/16 00:53:50;;;;;;;;;;;24.00;99.90;;;;;;5137787;27;19903;-70
2023/08/16 00:56:16;;;;;;;;;;;24.00;99.90;;;;;;5138021;27;19963;-71
2023/08/16 00:58:43;;;;;;;;;;;24.00;99.90;;;;;;5136076;27;20363;-72
2023/08/16 01:01:09;;;;;;;;;;;24.00;99.90;;;;;;5136046;27;19903;-71
2023/08/16 01:03:36;;;;;;;;;;;24.00;99.90;;;;;;5137220;27;19947;-72
2023/08/16 01:06:02;;;;;;;;;;;23.90;99.90;;;;;;5137587;27;19954;-71
2023/08/16 01:08:28;;;;;;;;;;;23.90;99.90;;;;;;5137493;27;19907;-72
2023/08/16 01:11:13;;;;;;;;;;;23.80;99.90;;;;;;5137235;27;19908;-71
2023/08/16 01:13:46;;;;;;;;;;;23.90;99.90;;;;;;5137677;27;19911;-71
2023/08/16 01:16:12;;;;;;;;;;;23.90;99.90;;;;;;5137073;27;19903;-71
2023/08/16 01:18:40;;;;;;;;;;;24.00;99.90;;;;;;5136718;27;20001;-71
2023/08/16 01:21:07;;;;;;;;;;;24.00;99.90;;;;;;5137068;27;19903;-71
2023/08/16 01:23:46;;;;;;;;;;;24.10;99.90;;;;;;5136753;27;19914;-71
2023/08/16 01:26:11;;;;;;;;;;;24.00;99.90;;;;;;5136708;27;20006;-71
2023/08/16 01:28:38;;;;;;;;;;;23.90;99.90;;;;;;5137149;27;19957;-72
2023/08/16 01:31:04;;;;;;;;;;;23.90;99.90;;;;;;5136699;27;19903;-71
2023/08/16 01:33:30;;;;;;;;;;;24.00;99.90;;;;;;5136517;27;19910;-71
2023/08/16 01:35:56;;;;;;;;;;;24.00;99.90;;;;;;5136558;27;19903;-70
2023/08/16 01:38:22;;;;;;;;;;;24.00;99.90;;;;;;5136540;27;19983;-71
2023/08/16 01:40:54;;;;;;;;;;;24.00;99.90;;;;;;5136977;27;20351;-72
2023/08/16 01:43:20;;;;;;;;;;;24.00;99.90;;;;;;5136362;27;19938;-71
2023/08/16 01:45:47;;;;;;;;;;;24.00;99.90;;;;;;5135116;27;20390;-71
2023/08/16 01:48:14;;;;;;;;;;;24.00;99.90;;;;;;5136257;27;19907;-70
2023/08/16 01:50:40;;;;;;;;;;;23.90;99.90;;;;;;5136687;27;19911;-71
2023/08/16 01:53:07;;;;;;;;;;;23.80;99.90;;;;;;5136312;27;19944;-71
2023/08/16 01:55:33;;;;;;;;;;;23.90;99.90;;;;;;5136294;27;19903;-71
2023/08/16 01:57:58;;;;;;;;;;;23.90;99.90;;;;;;5136770;27;20339;-71
2023/08/16 02:00:24;;;;;;;;;;;24.00;99.90;;;;;;5134833;27;19960;-70
2023/08/16 02:02:50;;;;;;;;;;;23.90;99.90;;;;;;5135998;27;19998;-70
2023/08/16 02:05:16;;;;;;;;;;;23.90;99.90;;;;;;5136319;27;19910;-70
2023/08/16 02:07:42;;;;;;;;;;;23.90;99.90;;;;;;5136071;27;19907;-70
2023/08/16 02:10:08;;;;;;;;;;;23.80;99.90;;;;;;5136249;27;19907;-71
2023/08/16 02:12:34;;;;;;;;;;;23.70;99.90;;;;;;5135949;27;20374;-69
2023/08/16 02:14:59;;;;;;;;;;;23.70;99.90;;;;;;5136374;27;19926;-71
2023/08/16 02:17:25;;;;;;;;;;;23.70;99.90;;;;;;5135742;27;20267;-71
2023/08/16 02:19:51;;;;;;;;;;;23.70;99.90;;;;;;5135812;27;19947;-72
2023/08/16 02:22:17;;;;;;;;;;;23.60;99.90;;;;;;5136143;27;20002;-70
2023/08/16 02:24:43;;;;;;;;;;;23.50;99.90;;;;;;5135950;27;20407;-71
2023/08/16 02:27:09;;;;;;;;;;;23.60;99.90;;;;;;5135798;27;20009;-71
2023/08/16 02:29:34;;;;;;;;;;;23.60;99.90;;;;;;5134197;27;19951;-71
2023/08/16 02:32:00;;;;;;;;;;;23.60;99.90;;;;;;5135852;27;20014;-71
2023/08/16 02:34:26;;;;;;;;;;;23.60;99.90;;;;;;5135167;27;19903;-72
2023/08/16 02:36:52;;;;;;;;;;;23.50;99.90;;;;;;5135518;27;19935;-72
2023/08/16 02:39:17;;;;;;;;;;;23.60;99.90;;;;;;5135190;27;19926;-71
2023/08/16 02:41:43;;;;;;;;;;;23.70;99.90;;;;;;5135387;27;19905;-72
2023/08/16 02:44:09;;;;;;;;;;;23.70;99.90;;;;;;5135606;27;19926;-71
2023/08/16 02:46:35;;;;;;;;;;;23.70;99.90;;;;;;5135180;27;19911;-71
2023/08/16 02:49:01;;;;;;;;;;;23.70;99.90;;;;;;5135033;27;19946;-73
2023/08/16 02:51:26;;;;;;;;;;;23.80;99.90;;;;;;5135226;27;19904;-71
2023/08/16 02:53:52;;;;;;;;;;;23.80;99.90;;;;;;5135065;27;19903;-71
2023/08/16 02:56:18;;;;;;;;;;;23.70;99.90;;;;;;5135552;27;20002;-71
2023/08/16 02:58:44;;;;;;;;;;;23.70;99.90;;;;;;5134875;27;19911;-71
2023/08/16 03:01:10;;;;;;;;;;;23.70;99.90;;;;;;5135271;27;19903;-71
2023/08/16 03:03:36;;;;;;;;;;;23.70;99.90;;;;;;5134752;27;19904;-73
2023/08/16 03:06:03;;;;;;;;;;;23.80;99.90;;;;;;5134829;27;20266;-71
2023/08/16 03:08:29;;;;;;;;;;;23.70;99.90;;;;;;5135148;27;20309;-71
2023/08/16 03:10:55;;;;;;;;;;;23.70;99.90;;;;;;5134864;27;19903;-71
2023/08/16 03:13:20;;;;;;;;;;;23.60;99.90;;;;;;5135226;27;19911;-71
2023/08/16 03:15:46;;;;;;;;;;;23.60;99.90;;;;;;5134947;27;19904;-71
2023/08/16 03:18:12;;;;;;;;;;;23.50;99.90;;;;;;5133201;27;19939;-71
2023/08/16 03:20:38;;;;;;;;;;;23.60;99.90;;;;;;5134655;27;19919;-72
2023/08/16 03:23:05;;;;;;;;;;;23.50;99.90;;;;;;5133258;27;19907;-71
2023/08/16 03:25:30;;;;;;;;;;;23.50;99.90;;;;;;5134777;27;19910;-72
2023/08/16 03:27:56;;;;;;;;;;;23.50;99.90;;;;;;5134532;27;19908;-71
2023/08/16 03:30:22;;;;;;;;;;;23.50;99.90;;;;;;5134740;27;19910;-71
2023/08/16 03:32:48;;;;;;;;;;;23.40;99.90;;;;;;5134501;27;20287;-70
2023/08/16 03:35:14;;;;;;;;;;;23.40;99.90;;;;;;5134631;27;19955;-72
2023/08/16 03:37:40;;;;;;;;;;;23.40;99.90;;;;;;5133020;27;19982;-72
2023/08/16 03:40:06;;;;;;;;;;;23.40;99.90;;;;;;5134415;27;20402;-71
2023/08/16 03:42:32;;;;;;;;;;;23.40;99.90;;;;;;5134867;27;19903;-71
2023/08/16 03:44:58;;;;;;;;;;;23.40;99.90;;;;;;5133756;27;20240;-71
2023/08/16 03:47:24;;;;;;;;;;;23.40;99.90;;;;;;5134143;27;20371;-70
2023/08/16 03:49:49;;;;;;;;;;;23.50;99.90;;;;;;5134262;27;19991;-71
2023/08/16 03:52:15;;;;;;;;;;;23.50;99.90;;;;;;5134427;27;20065;-71
2023/08/16 03:54:41;;;;;;;;;;;23.60;99.90;;;;;;5134121;27;19910;-72
2023/08/16 03:57:07;;;;;;;;;;;23.60;99.90;;;;;;5134628;27;19907;-72
2023/08/16 03:59:32;;;;;;;;;;;23.60;99.90;;;;;;5134033;28;19904;-71
2023/08/16 04:01:59;;;;;;;;;;;23.50;99.90;;;;;;5134850;27;19956;-72
2023/08/16 04:04:25;;;;;;;;;;;23.60;99.90;;;;;;5133908;27;19907;-71
2023/08/16 04:06:50;;;;;;;;;;;23.60;99.90;;;;;;5134029;27;20006;-72
2023/08/16 04:09:17;;;;;;;;;;;23.60;99.90;;;;;;5132678;28;19968;-72
2023/08/16 04:11:43;;;;;;;;;;;23.70;99.90;;;;;;5134025;27;20069;-71
2023/08/16 04:14:09;;;;;;;;;;;23.70;99.90;;;;;;5134375;28;20283;-71
2023/08/16 04:16:35;;;;;;;;;;;23.70;99.90;;;;;;5134196;28;19959;-71
2023/08/16 04:19:01;;;;;;;;;;;23.80;99.90;;;;;;5132370;28;19908;-71
2023/08/16 04:21:27;;;;;;;;;;;23.80;99.90;;;;;;5133932;27;19998;-73
2023/08/16 04:23:52;;;;;;;;;;;23.80;99.90;;;;;;5132554;28;19907;-71
2023/08/16 04:26:18;;;;;;;;;;;23.70;99.90;;;;;;5134054;28;19922;-72
2023/08/16 04:28:44;;;;;;;;;;;23.70;99.90;;;;;;5134120;28;20209;-71
2023/08/16 04:31:10;;;;;;;;;;;23.80;99.90;;;;;;5134286;28;19971;-71
2023/08/16 04:33:36;;;;;;;;;;;23.80;99.90;;;;;;5132356;28;19925;-73
2023/08/16 04:36:01;;;;;;;;;;;23.80;99.90;;;;;;5134262;28;19969;-71
2023/08/16 04:38:27;;;;;;;;;;;23.80;99.90;;;;;;5133543;28;19912;-71
2023/08/16 04:40:53;;;;;;;;;;;23.80;99.90;;;;;;5134313;28;19908;-71
2023/08/16 04:43:19;;;;;;;;;;;23.80;99.90;;;;;;5133734;28;19904;-71
2023/08/16 04:45:45;;;;;;;;;;;23.80;99.90;;;;;;5134074;27;19907;-73
2023/08/16 04:48:11;;;;;;;;;;;23.80;99.90;;;;;;5132206;28;20285;-71
2023/08/16 04:50:37;;;;;;;;;;;23.70;99.90;;;;;;5133796;27;20363;-71
2023/08/16 04:53:03;;;;;;;;;;;23.70;99.90;;;;;;5133621;27;19903;-71
2023/08/16 04:55:29;;;;;;;;;;;23.70;99.90;;;;;;5134046;28;19910;-71
2023/08/16 04:57:55;;;;;;;;;;;23.60;99.90;;;;;;5136474;27;19965;-71
2023/08/16 05:00:21;;;;;;;;;;;23.60;99.90;;;;;;5135975;27;20380;-71
2023/08/16 05:02:47;;;;;;;;;;;23.60;99.90;;;;;;5137189;27;20358;-71
2023/08/16 05:05:13;;;;;;;;;;;23.60;99.90;;;;;;5137235;27;19933;-72
2023/08/16 05:07:39;;;;;;;;;;;23.60;99.90;;;;;;5137119;27;19956;-72
2023/08/16 05:10:05;;;;;;;;;;;23.70;99.90;;;;;;5137502;27;20293;-72
2023/08/16 05:12:31;;;;;;;;;;;23.70;99.90;;;;;;5137078;27;19903;-71
2023/08/16 05:14:57;;;;;;;;;;;23.80;99.90;;;;;;5136956;27;19908;-71
2023/08/16 05:17:23;;;;;;;;;;;23.80;99.90;;;;;;5136366;27;19903;-72
2023/08/16 05:19:48;;;;;;;;;;;24.00;99.90;;;;;;5136503;27;19915;-72
2023/08/16 05:22:14;;;;;;;;;;;24.90;99.90;;;;;;5136755;27;20377;-71
2023/08/16 05:24:40;;;;;;;;;;;26.10;99.90;;;;;;5136858;27;19994;-72
2023/08/16 05:27:11;;;;;;;;;;;27.20;99.90;;;;;;5136957;27;19918;-72
2023/08/16 05:29:38;;;;;;;;;;;28.00;99.90;;;;;;5137023;27;19910;-73
2023/08/16 05:32:04;;;;;;;;;;;28.20;99.90;;;;;;5136737;27;19971;-71
2023/08/16 05:34:30;;;;;;;;;;;28.90;99.90;;;;;;5136316;27;20348;-72
2023/08/16 05:36:56;;;;;;;;;;;29.80;99.90;;;;;;5135881;27;19903;-73
2023/08/16 05:39:22;;;;;;;;;;;30.30;99.90;;;;;;5136183;27;20013;-73
2023/08/16 05:41:48;;;;;;;;;;;31.10;99.90;;;;;;5136220;27;20006;-72
2023/08/16 05:44:14;;;;;;;;;;;31.40;99.90;;;;;;5134801;27;19956;-73
2023/08/16 05:46:40;;;;;;;;;;;32.20;99.90;;;;;;5136393;27;19975;-73
2023/08/16 05:49:06;;;;;;;;;;;33.40;99.90;;;;;;5135875;27;19907;-74
2023/08/16 05:51:32;;;;;;;;;;;34.40;99.90;;;;;;5136577;27;20236;-72
2023/08/16 05:53:58;;;;;;;;;;;34.70;99.30;;;;;;5134643;27;19919;-73
2023/08/16 05:56:24;;;;;;;;;;;35.40;98.10;;;;;;5136289;27;19904;-72
2023/08/16 05:58:50;;;;;;;;;;;35.30;97.80;;;;;;5136350;27;19907;-73
2023/08/16 06:01:16;;;;;;;;;;;36.40;97.40;;;;;;5136045;27;20355;-73
2023/08/16 06:03:41;;;;;;;;;;;37.00;95.70;;;;;;5135750;27;19903;-73
2023/08/16 06:06:07;;;;;;;;;;;37.50;94.80;;;;;;5136298;27;20367;-73
2023/08/16 06:08:33;;;;;;;;;;;37.40;94.30;;;;;;5133342;27;19908;-73
2023/08/16 06:11:01;;;;;;;;;;;38.20;93.80;;;;;;5135858;27;19908;-73
2023/08/16 06:13:27;;;;;;;;;;;38.70;92.90;;;;;;5136107;27;19904;-73
2023/08/16 06:15:53;;;;;;;;;;;38.90;93.20;;;;;;5135582;27;20341;-73
2023/08/16 06:18:18;;;;;;;;;;;40.10;91.80;;;;;;5135657;27;19907;-72
2023/08/16 06:20:44;;;;;;;;;;;41.10;90.30;;;;;;5134189;27;19911;-73
2023/08/16 06:23:10;;;;;;;;;;;41.30;88.60;;;;;;5135400;27;19948;-73
2023/08/16 06:25:36;;;;;;;;;;;42.00;85.70;;;;;;5135655;27;19904;-71
2023/08/16 06:28:03;;;;;;;;;;;41.40;84.80;;;;;;5135236;27;20007;-71
2023/08/16 06:30:29;;;;;;;;;;;41.50;82.70;;;;;;5133778;27;19997;-72
2023/08/16 06:32:55;;;;;;;;;;;40.70;83.10;;;;;;5135549;27;20367;-71
2023/08/16 06:35:20;;;;;;;;;;;40.40;83.00;;;;;;5135496;27;20332;-71
2023/08/16 06:37:46;;;;;;;;;;;40.10;84.70;;;;;;5135176;27;19946;-71
2023/08/16 06:40:12;;;;;;;;;;;39.60;85.60;;;;;;5133613;27;19945;-72
2023/08/16 06:42:42;;;;;;;;;;;40.70;85.20;;;;;;5133570;27;20157;-71
2023/08/16 06:45:09;;;;;;;;;;;41.50;83.00;;;;;;5135480;27;19993;-71
2023/08/16 06:47:35;;;;;;;;;;;40.90;82.30;;;;;;5134808;27;19912;-71
2023/08/16 06:50:01;;;;;;;;;;;40.30;83.60;;;;;;5133408;27;19948;-72
2023/08/16 06:52:26;;;;;;;;;;;40.20;83.50;;;;;;5134777;27;19949;-72
2023/08/16 06:54:52;;;;;;;;;;;39.80;83.20;;;;;;5134839;27;19943;-72
2023/08/16 06:57:18;;;;;;;;;;;39.70;84.00;;;;;;5134906;27;20342;-71
2023/08/16 06:59:44;;;;;;;;;;;40.30;83.90;;;;;;5135108;27;19911;-73
2023/08/16 07:02:11;;;;;;;;;;;38.10;85.30;;;;;;5134509;27;20006;-72
2023/08/16 07:04:38;;;;;;;;;;;38.80;85.30;;;;;;5134434;27;20008;-72
2023/08/16 07:07:05;;;;;;;;;;;39.80;84.80;;;;;;5134485;27;19911;-72
2023/08/16 07:09:30;;;;;;;;;;;39.90;83.00;;;;;;5134419;27;19904;-72
2023/08/16 07:11:56;;;;;;;;;;;39.60;83.40;;;;;;5134408;27;19903;-72
2023/08/16 07:14:22;;;;;;;;;;;39.50;83.10;;;;;;5134497;27;19910;-74
2023/08/16 07:16:48;;;;;;;;;;;40.30;82.30;;;;;;5134268;27;19904;-70
2023/08/16 07:19:14;;;;;;;;;;;40.20;82.60;;;;;;5134162;27;19986;-72
2023/08/16 07:21:39;;;;;;;;;;;39.80;83.10;;;;;;5134397;27;19903;-72
2023/08/16 07:24:05;;;;;;;;;;;39.30;82.50;;;;;;5134503;27;19915;-72
2023/08/16 07:26:31;;;;;;;;;;;38.20;84.90;;;;;;5134166;27;19953;-72
2023/08/16 07:28:57;;;;;;;;;;;38.90;83.90;;;;;;5134093;27;19950;-71
2023/08/16 07:31:23;;;;;;;;;;;37.40;85.20;;;;;;5134153;27;20267;-71
2023/08/16 07:33:49;;;;;;;;;;;37.00;86.60;;;;;;5133754;27;19911;-71
2023/08/16 07:36:15;;;;;;;;;;;36.90;89.70;;;;;;5133939;27;19924;-71
2023/08/16 07:38:40;;;;;;;;;;;37.00;91.40;;;;;;5134193;27;19907;-71
2023/08/16 07:41:07;;;;;;;;;;;37.00;91.80;;;;;;5134435;27;19911;-71
2023/08/16 07:43:33;;;;;;;;;;;36.80;92.70;;;;;;5133980;27;19904;-71
2023/08/16 07:45:58;;;;;;;;;;;36.90;94.50;;;;;;5132465;27;19945;-71
2023/08/16 07:48:24;;;;;;;;;;;36.50;95.30;;;;;;5133670;27;19998;-70
2023/08/16 07:50:50;;;;;;;;;;;36.60;95.90;;;;;;5132430;27;20006;-70
2023/08/16 07:53:17;;;;;;;;;;;35.80;96.90;;;;;;5133666;27;19904;-71
2023/08/16 07:55:42;;;;;;;;;;;35.40;97.50;;;;;;5133973;27;19903;-71
2023/08/16 07:58:08;;;;;;;;;;;35.10;98.00;;;;;;5134390;27;20268;-73
2023/08/16 08:00:35;;;;;;;;;;;34.70;98.80;;;;;;5133658;27;19964;-71
2023/08/16 08:03:01;;;;;;;;;;;34.30;99.30;;;;;;5133997;27;19972;-71
2023/08/16 08:05:27;;;;;;;;;;;33.70;99.90;;;;;;5133678;27;19910;-71
2023/08/16 08:07:53;;;;;;;;;;;33.80;99.90;;;;;;5133605;27;19911;-71
2023/08/16 08:10:19;;;;;;;;;;;33.70;99.90;;;;;;5134158;27;19923;-72
2023/08/16 08:12:45;;;;;;;;;;;33.10;99.90;;;;;;5133555;27;19903;-71
2023/08/16 08:15:11;;;;;;;;;;;33.60;99.90;;;;;;5133506;27;19909;-70
2023/08/16 08:17:37;;;;;;;;;;;33.80;99.90;;;;;;5133581;27;20333;-71
2023/08/16 08:20:04;;;;;;;;;;;33.20;99.90;;;;;;5133509;28;19907;-71
2023/08/16 08:22:30;;;;;;;;;;;33.10;99.90;;;;;;5133852;27;19904;-71
2023/08/16 08:24:56;;;;;;;;;;;33.60;99.90;;;;;;5133860;27;20332;-71
2023/08/16 08:27:22;;;;;;;;;;;34.10;99.90;;;;;;5133467;27;20393;-71
2023/08/16 08:29:48;;;;;;;;;;;34.30;99.80;;;;;;5133440;28;19904;-71
2023/08/16 08:32:14;;;;;;;;;;;34.20;99.20;;;;;;5135793;27;19910;-71
2023/08/16 08:34:39;;;;;;;;;;;33.80;99.40;;;;;;5137386;27;19903;-71
2023/08/16 08:37:05;;;;;;;;;;;33.70;99.50;;;;;;5137455;27;19903;-72
2023/08/16 08:39:32;;;;;;;;;;;33.30;99.80;;;;;;5137189;27;19916;-73
2023/08/16 08:41:57;;;;;;;;;;;34.00;99.60;;;;;;5137923;27;20391;-72
2023/08/16 08:44:24;;;;;;;;;;;33.90;99.50;;;;;;5136002;27;20048;-72
2023/08/16 08:46:50;;;;;;;;;;;34.00;99.50;;;;;;5137820;27;19911;-72
2023/08/16 08:49:17;;;;;;;;;;;33.50;99.90;;;;;;5137310;27;19991;-72
2023/08/16 08:51:43;;;;;;;;;;;33.70;99.80;;;;;;5137714;27;19904;-72
2023/08/16 08:54:09;;;;;;;;;;;34.00;99.70;;;;;;5137177;27;19927;-72
2023/08/16 08:56:36;;;;;;;;;;;34.10;99.70;;;;;;5137319;27;19997;-73
2023/08/16 08:59:01;;;;;;;;;;;34.50;99.40;;;;;;5137573;27;19907;-72
2023/08/16 09:01:27;;;;;;;;;;;34.10;99.20;;;;;;5137105;27;20241;-72
2023/08/16 09:03:55;;;;;;;;;;;33.70;99.90;;;;;;5136854;27;19923;-72
2023/08/16 09:06:21;;;;;;;;;;;33.40;99.80;;;;;;5136965;27;19915;-72
2023/08/16 09:08:48;;;;;;;;;;;33.30;99.40;;;;;;5136913;27;19907;-72
2023/08/16 09:11:14;;;;;;;;;;;33.20;99.30;;;;;;5136899;27;19911;-72
2023/08/16 09:13:40;;;;;;;;;;;32.90;99.60;;;;;;5137105;27;19946;-72
2023/08/16 09:16:06;;;;;;;;;;;33.50;99.60;;;;;;5137031;27;20374;-73
2023/08/16 09:18:31;;;;;;;;;;;33.70;99.40;;;;;;5136523;27;19931;-72
2023/08/16 09:21:00;;;;;;;;;;;33.80;99.30;;;;;;5136938;27;19940;-72
2023/08/16 09:23:26;;;;;;;;;;;33.20;99.70;;;;;;5136471;27;20022;-73
2023/08/16 09:25:52;;;;;;;;;;;32.90;99.90;;;;;;5136373;27;20039;-72
2023/08/16 09:28:18;;;;;;;;;;;33.10;99.90;;;;;;5136510;27;19921;-72
2023/08/16 09:30:44;;;;;;;;;;;32.70;99.90;;;;;;5136481;27;20271;-72
2023/08/16 09:33:14;;;;;;;;;;;32.70;99.90;;;;;;5136505;27;19909;-72
2023/08/16 09:35:50;;;;;;;;;;;32.80;99.90;;;;;;5136426;27;19915;-72
2023/08/16 09:38:20;;;;;;;;;;;32.70;99.90;;;;;;5135063;27;19910;-72
2023/08/16 09:40:49;;;;;;;;;;;32.50;99.90;;;;;;5136671;27;19916;-72
2023/08/16 09:43:15;;;;;;;;;;;32.60;99.90;;;;;;5136089;27;19905;-72
2023/08/16 09:45:42;;;;;;;;;;;32.70;99.90;;;;;;5136344;27;20213;-72
2023/08/16 09:48:08;;;;;;;;;;;32.90;99.90;;;;;;5134712;27;19914;-72
2023/08/16 09:50:35;;;;;;;;;;;32.30;99.90;;;;;;5136428;27;19903;-72
2023/08/16 09:53:04;;;;;;;;;;;32.40;99.90;;;;;;5136031;27;19904;-72
2023/08/16 09:55:31;;;;;;;;;;;32.00;99.90;;;;;;5136340;27;19950;-72
2023/08/16 09:58:00;;;;;;;;;;;32.10;99.90;;;;;;5136061;27;19904;-73
2023/08/16 10:00:28;;;;;;;;;;;31.90;99.90;;;;;;5137025;27;19907;-72
2023/08/16 10:02:55;;;;;;;;;;;32.10;99.90;;;;;;5135734;27;19931;-72
2023/08/16 10:05:21;;;;;;;;;;;32.00;99.90;;;;;;5135912;27;20330;-72
2023/08/16 10:07:47;;;;;;;;;;;32.30;99.90;;;;;;5135770;27;19916;-72
2023/08/16 10:10:13;;;;;;;;;;;32.10;99.90;;;;;;5135911;27;20269;-72
2023/08/16 10:12:39;;;;;;;;;;;32.30;99.90;;;;;;5135579;27;19985;-72
2023/08/16 10:15:05;;;;;;;;;;;32.10;99.90;;;;;;5136023;27;20032;-72
2023/08/16 10:17:33;;;;;;;;;;;32.00;99.90;;;;;;5135556;27;19903;-72
2023/08/16 10:20:00;;;;;;;;;;;31.70;99.90;;;;;;5134900;27;19903;-71
2023/08/16 10:22:32;;;;;;;;;;;31.50;99.90;;;;;;5135580;27;19952;-72
2023/08/16 10:25:02;;;;;;;;;;;31.50;99.90;;;;;;5135867;27;19903;-72
2023/08/16 10:27:28;;;;;;;;;;;31.70;99.90;;;;;;5135281;27;19911;-72
2023/08/16 10:29:57;;;;;;;;;;;31.90;99.90;;;;;;5133851;27;20363;-72
2023/08/16 10:32:24;;;;;;;;;;;32.10;99.90;;;;;;5135235;27;19903;-72
2023/08/16 10:34:54;;;;;;;;;;;32.20;99.90;;;;;;5135280;27;20240;-72
2023/08/16 10:37:21;;;;;;;;;;;32.50;99.90;;;;;;5135086;27;20378;-72
2023/08/16 10:39:50;;;;;;;;;;;32.40;99.90;;;;;;5135003;27;19915;-72
2023/08/16 10:42:16;;;;;;;;;;;32.40;99.90;;;;;;5135154;27;19910;-72
2023/08/16 10:44:51;;;;;;;;;;;32.30;99.90;;;;;;5135542;27;19903;-72
2023/08/16 10:47:29;;;;;;;;;;;32.30;99.90;;;;;;5135316;27;19946;-72
2023/08/16 10:49:55;;;;;;;;;;;32.50;99.90;;;;;;5133531;27;19935;-72
2023/08/16 10:52:28;;;;;;;;;;;32.50;99.90;;;;;;5133430;27;20010;-72
2023/08/16 10:54:54;;;;;;;;;;;32.50;99.90;;;;;;5134360;27;19963;-73
2023/08/16 10:57:25;;;;;;;;;;;32.70;99.90;;;;;;5135043;27;20363;-72
2023/08/16 11:00:00;;;;;;;;;;;32.50;99.90;;;;;;5133247;27;20277;-72
2023/08/16 11:02:30;;;;;;;;;;;32.50;99.90;;;;;;5135140;27;20343;-72
2023/08/16 11:04:56;;;;;;;;;;;32.60;99.90;;;;;;5134580;27;19948;-70
2023/08/16 11:07:22;;;;;;;;;;;32.60;99.90;;;;;;5134726;27;19915;-72
2023/08/16 11:09:48;;;;;;;;;;;32.70;99.90;;;;;;5134592;27;19910;-72
2023/08/16 11:12:16;;;;;;;;;;;32.50;99.90;;;;;;5135010;27;19940;-72
2023/08/16 11:14:44;;;;;;;;;;;32.50;99.90;;;;;;5134523;27;20401;-72
2023/08/16 11:17:13;;;;;;;;;;;32.30;99.90;;;;;;5134859;27;19914;-72
2023/08/16 11:19:38;;;;;;;;;;;32.10;99.90;;;;;;5134302;27;19904;-72
2023/08/16 11:22:05;;;;;;;;;;;32.30;99.90;;;;;;5134284;27;19903;-71
2023/08/16 11:24:31;;;;;;;;;;;32.50;99.90;;;;;;5134087;27;19907;-71
2023/08/16 11:26:58;;;;;;;;;;;32.70;99.90;;;;;;5134591;27;19911;-72
2023/08/16 11:29:23;;;;;;;;;;;32.70;99.90;;;;;;5134921;27;19910;-73
2023/08/16 11:31:54;;;;;;;;;;;32.60;99.90;;;;;;5134122;27;19985;-71
2023/08/16 11:34:20;;;;;;;;;;;32.50;99.90;;;;;;5134247;27;20009;-71
2023/08/16 11:36:46;;;;;;;;;;;32.70;99.90;;;;;;5134561;27;19956;-72
2023/08/16 11:39:12;;;;;;;;;;;32.60;99.90;;;;;;5133958;27;20010;-71
2023/08/16 11:41:38;;;;;;;;;;;32.70;99.90;;;;;;5134615;27;20037;-72
2023/08/16 11:44:04;;;;;;;;;;;32.90;99.90;;;;;;5133937;27;19964;-72
2023/08/16 11:46:39;;;;;;;;;;;32.90;99.90;;;;;;5133891;27;20417;-71
2023/08/16 11:49:05;;;;;;;;;;;32.70;99.90;;;;;;5133909;27;19947;-71
2023/08/16 11:51:30;;;;;;;;;;;32.70;99.90;;;;;;5132571;27;19904;-72
2023/08/16 11:53:58;;;;;;;;;;;32.60;99.90;;;;;;5133829;27;19972;-71
2023/08/16 11:56:28;;;;;;;;;;;32.60;99.90;;;;;;5133824;27;20028;-73
2023/08/16 11:58:55;;;;;;;;;;;32.80;99.90;;;;;;5132667;27;19919;-73
2023/08/16 12:01:22;;;;;;;;;;;32.60;99.90;;;;;;5133869;27;19986;-73
2023/08/16 12:03:48;;;;;;;;;;;32.80;99.90;;;;;;5132276;28;19903;-73
2023/08/16 12:06:16;;;;;;;;;;;32.80;99.90;;;;;;5133236;27;19962;-74
2023/08/16 12:08:52;;;;;;;;;;;32.90;99.90;;;;;;5133783;27;19930;-71
2023/08/16 12:11:32;;;;;;;;;;;32.60;99.90;;;;;;5134187;27;19903;-71
2023/08/16 12:13:58;;;;;;;;;;;32.70;99.90;;;;;;5133790;27;20002;-71
2023/08/16 12:16:25;;;;;;;;;;;32.90;99.90;;;;;;5133710;27;19907;-71
2023/08/16 12:18:51;;;;;;;;;;;32.80;99.90;;;;;;5133333;27;19903;-71
2023/08/16 12:21:17;;;;;;;;;;;32.70;99.90;;;;;;5133816;27;19910;-71
2023/08/16 12:23:43;;;;;;;;;;;33.00;99.90;;;;;;5133746;27;19998;-71
2023/08/16 12:26:09;;;;;;;;;;;33.10;99.90;;;;;;5133476;28;20010;-71
2023/08/16 12:28:35;;;;;;;;;;;33.20;99.90;;;;;;5133568;27;20337;-71
2023/08/16 12:31:01;;;;;;;;;;;33.20;99.90;;;;;;5134051;28;19986;-72
2023/08/16 12:33:27;;;;;;;;;;;33.20;99.90;;;;;;5133398;27;19903;-73
2023/08/16 12:35:53;;;;;;;;;;;33.00;99.90;;;;;;5133985;27;20006;-70
2023/08/16 12:38:21;;;;;;;;;;;33.10;99.90;;;;;;5133056;27;20352;-71
2023/08/16 12:40:47;;;;;;;;;;;33.00;99.90;;;;;;5133361;27;19911;-71
2023/08/16 12:43:13;;;;;;;;;;;32.90;99.90;;;;;;5133963;28;20270;-71
2023/08/16 12:45:39;;;;;;;;;;;33.10;99.90;;;;;;5133748;27;19903;-71
2023/08/16 12:48:05;;;;;;;;;;;33.10;99.90;;;;;;5131905;28;19916;-71
2023/08/16 12:50:30;;;;;;;;;;;33.10;99.90;;;;;;5133375;27;19903;-71
2023/08/16 12:52:58;;;;;;;;;;;33.20;99.90;;;;;;5133424;28;20270;-71
2023/08/16 12:55:23;;;;;;;;;;;33.10;99.90;;;;;;5133873;27;20443;-71
2023/08/16 12:57:49;;;;;;;;;;;33.00;99.90;;;;;;5132036;28;19942;-72
2023/08/16 13:00:16;;;;;;;;;;;33.20;99.90;;;;;;5132105;28;20253;-73
2023/08/16 13:02:41;;;;;;;;;;;33.00;99.90;;;;;;5133413;27;20070;-73
2023/08/16 13:05:07;;;;;;;;;;;33.00;99.90;;;;;;5133315;27;20375;-72
2023/08/16 13:07:34;;;;;;;;;;;33.00;99.90;;;;;;5133278;27;19926;-73
2023/08/16 13:10:00;;;;;;;;;;;32.80;99.90;;;;;;5133408;27;19993;-73
2023/08/16 13:12:26;;;;;;;;;;;32.70;99.90;;;;;;5133171;27;20378;-73
2023/08/16 13:14:52;;;;;;;;;;;32.50;99.90;;;;;;5133359;27;19903;-72
2023/08/16 13:17:17;;;;;;;;;;;32.70;99.90;;;;;;5133499;27;19903;-72
2023/08/16 13:19:43;;;;;;;;;;;32.70;99.90;;;;;;5137149;27;19903;-72
2023/08/16 13:22:12;;;;;;;;;;;32.70;99.90;;;;;;5136867;27;19903;-72
2023/08/16 13:24:38;;;;;;;;;;;32.80;99.90;;;;;;5136745;27;19946;-73
2023/08/16 13:27:04;;;;;;;;;;;32.70;99.90;;;;;;5137116;27;19918;-72
2023/08/16 13:29:30;;;;;;;;;;;31.80;99.90;;;;;;5136665;27;19907;-73
2023/08/16 13:31:56;;;;;;;;;;;31.90;99.90;;;;;;5136881;27;19904;-72
2023/08/16 13:34:22;;;;;;;;;;;32.00;99.90;;;;;;5136359;27;19950;-72
2023/08/16 13:36:49;;;;;;;;;;;32.00;99.90;;;;;;5136494;27;19935;-72
2023/08/16 13:39:14;;;;;;;;;;;32.00;99.90;;;;;;5136164;27;19915;-72
2023/08/16 13:41:40;;;;;;;;;;;32.30;99.90;;;;;;5136797;27;20313;-72
2023/08/16 13:44:06;;;;;;;;;;;32.20;99.90;;;;;;5136486;27;20267;-72
2023/08/16 13:46:32;;;;;;;;;;;32.10;99.90;;;;;;5135100;27;19911;-71
2023/08/16 13:48:58;;;;;;;;;;;32.20;99.90;;;;;;5136201;27;19924;-71
2023/08/16 13:51:24;;;;;;;;;;;32.30;99.90;;;;;;5136194;27;19994;-71
2023/08/16 13:53:50;;;;;;;;;;;32.30;99.90;;;;;;5136159;27;19999;-71
2023/08/16 13:56:16;;;;;;;;;;;31.90;99.90;;;;;;5134810;27;19914;-72
2023/08/16 13:58:41;;;;;;;;;;;32.00;99.90;;;;;;5134794;27;19956;-71
2023/08/16 14:01:07;;;;;;;;;;;32.30;99.90;;;;;;5136101;27;19911;-71
2023/08/16 14:03:33;;;;;;;;;;;32.20;99.90;;;;;;5136195;27;19903;-71
2023/08/16 14:06:00;;;;;;;;;;;32.40;99.90;;;;;;5136393;27;19916;-71
2023/08/16 14:08:26;;;;;;;;;;;32.50;99.90;;;;;;5135993;27;20032;-71
2023/08/16 14:10:52;;;;;;;;;;;32.50;99.90;;;;;;5136090;27;20033;-72